Laurentides, Canada
Current Conditions -  °F | °C
As of 5:00 AM on Wednesday 22 Oct 2014 (Local Time) from CYMX Reporting Station
Overcast Overcast  
Wind Chill: 40°   Ceiling: 4000
Heat Index: 45°   Visibility: 25mi
Dew Point: 32°   Wind: 8mph
Humidity: 61%   Direction: 50°NE
Pressure: 30.22"   Gusts: 20mph
Location:  45.85°N, 73.77°W
Report Text: CYMX 220900Z 05007G17KT 360V080 25SM SCT030 OVC040 07/M00 A3022 RMK SC3SC5 SLP236
Loading
Personal Weather Stations






























Interactive Weather Map
Tropical Storm Tracking
New forecast layout! Learn more

10-Day Weather Forecast

Advertisements
Track Severe Weather on mobile